Time;durP1;ratioP1;P1;durP2;ratioP2;P2;SDS_P1;SDS_P2;PMS_P1;PMS_P2;Temp;Humidity;BMP_temperature;BMP_pressure;BME280_temperature;BME280_humidity;BME280_pressure;Samples;Min_cycle;Max_cycle;Signal;HPM_P1;HPM_P2
2024/01/02 00:00:22;;;;;;;9.85;2.70;;;;;;;8.01;82.14;99940.81;5079824;28;20085;-63
2024/01/02 00:02:48;;;;;;;10.07;2.85;;;;;;;8.03;82.47;99946.94;5092178;28;20068;-63
2024/01/02 00:05:13;;;;;;;11.68;3.15;;;;;;;8.01;82.63;99939.97;5090224;28;20023;-64
2024/01/02 00:07:41;;;;;;;8.40;2.80;;;;;;;8.01;82.55;99932.50;5091457;28;20044;-63
2024/01/02 00:10:07;;;;;;;11.57;2.83;;;;;;;8.01;83.01;99924.22;5065558;28;20047;-63
2024/01/02 00:12:32;;;;;;;11.00;2.53;;;;;;;8.02;82.48;99925.09;5078579;28;20468;-63
2024/01/02 00:14:57;;;;;;;8.65;2.60;;;;;;;8.02;83.10;99925.09;5091262;28;20059;-64
2024/01/02 00:17:23;;;;;;;7.18;2.40;;;;;;;7.95;83.76;99914.22;5091512;28;20067;-63
2024/01/02 00:19:49;;;;;;;9.07;2.60;;;;;;;7.94;83.24;99898.75;5090684;28;20432;-63
2024/01/02 00:22:17;;;;;;;7.80;2.40;;;;;;;7.94;83.90;99873.88;5078090;28;20486;-63
2024/01/02 00:24:42;;;;;;;8.90;2.80;;;;;;;7.97;83.42;99867.81;5071236;28;20392;-63
2024/01/02 00:27:07;;;;;;;8.18;2.45;;;;;;;8.00;83.59;99869.22;5050157;28;20021;-63
2024/01/02 00:29:33;;;;;;;8.95;2.20;;;;;;;8.01;83.96;99846.84;5051709;28;20022;-63
2024/01/02 00:31:58;;;;;;;5.30;2.28;;;;;;;7.99;84.27;99843.53;5063421;28;20039;-63
2024/01/02 00:34:25;;;;;;;8.68;2.25;;;;;;;8.00;83.76;99822.25;5081640;28;20037;-63
2024/01/02 00:36:50;;;;;;;5.38;2.00;;;;;;;7.99;84.55;99815.91;5079719;28;20526;-63
2024/01/02 00:39:15;;;;;;;9.85;2.50;;;;;;;8.00;84.01;99798.22;5060428;28;20123;-64
2024/01/02 00:41:42;;;;;;;5.43;1.67;;;;;;;7.97;85.00;99778.56;5075060;28;20110;-64
2024/01/02 00:44:07;;;;;;;8.52;1.88;;;;;;;7.97;84.63;99765.56;5094865;28;20075;-64
2024/01/02 00:46:32;;;;;;;7.07;2.20;;;;;;;7.98;84.73;99758.97;5094374;28;20078;-64
2024/01/02 00:48:58;;;;;;;5.00;1.83;;;;;;;8.01;84.53;99741.84;5094818;28;20386;-63
2024/01/02 00:51:23;;;;;;;5.45;1.60;;;;;;;7.99;85.42;99732.16;5085442;28;20032;-63
2024/01/02 00:53:48;;;;;;;6.18;1.50;;;;;;;7.98;84.72;99719.47;5082007;28;20034;-63
2024/01/02 00:56:14;;;;;;;4.22;1.38;;;;;;;7.96;85.08;99713.34;5086408;28;20042;-63
2024/01/02 00:58:39;;;;;;;5.63;2.17;;;;;;;7.95;85.01;99715.28;5094466;28;20073;-63
2024/01/02 01:01:04;;;;;;;5.97;1.80;;;;;;;7.97;85.33;99685.44;5081571;28;20024;-64
2024/01/02 01:03:29;;;;;;;5.70;1.70;;;;;;;8.01;85.18;99686.56;5094126;28;20502;-64
2024/01/02 01:05:55;;;;;;;5.15;1.50;;;;;;;7.99;85.52;99679.66;5094635;28;20111;-63
2024/01/02 01:08:20;;;;;;;3.60;1.38;;;;;;;7.96;84.57;99678.25;5086168;28;20503;-63
2024/01/02 01:10:45;;;;;;;3.90;1.70;;;;;;;7.96;85.72;99675.50;5077648;28;20084;-63
2024/01/02 01:13:10;;;;;;;4.13;1.50;;;;;;;7.99;85.79;99671.38;5094316;28;20051;-63
2024/01/02 01:15:38;;;;;;;4.88;1.33;;;;;;;7.99;85.85;99638.22;5080045;28;20028;-63
2024/01/02 01:18:03;;;;;;;2.58;1.40;;;;;;;8.01;84.97;99652.59;5086188;28;20035;-63
2024/01/02 01:20:28;;;;;;;3.53;1.35;;;;;;;7.97;85.78;99632.94;5094039;28;20369;-64
2024/01/02 01:22:54;;;;;;;4.22;1.52;;;;;;;7.98;85.93;99637.38;5092377;28;20110;-63
2024/01/02 01:25:19;;;;;;;3.63;1.60;;;;;;;7.98;85.58;99626.34;5093540;28;20471;-63
2024/01/02 01:27:44;;;;;;;3.83;1.48;;;;;;;8.00;85.36;99606.72;5090884;28;20111;-63
2024/01/02 01:30:10;;;;;;;2.70;1.30;;;;;;;8.00;85.23;99606.72;5060777;28;20046;-63
2024/01/02 01:32:35;;;;;;;2.53;1.60;;;;;;;8.00;85.67;99593.72;5056706;28;20059;-63
2024/01/02 01:35:00;;;;;;;3.22;1.10;;;;;;;7.97;85.92;99574.91;5087324;28;20155;-63
2024/01/02 01:37:26;;;;;;;4.30;1.48;;;;;;;7.98;85.78;99560.03;5093115;28;20035;-64
2024/01/02 01:39:51;;;;;;;3.47;1.17;;;;;;;7.99;86.15;99558.09;5093747;28;20047;-64
2024/01/02 01:42:16;;;;;;;2.20;1.15;;;;;;;7.96;86.37;99553.09;5093087;28;20063;-63
2024/01/02 01:44:42;;;;;;;4.28;1.27;;;;;;;7.97;86.28;99532.63;5082530;28;20075;-63
2024/01/02 01:47:07;;;;;;;1.85;1.15;;;;;;;7.98;86.01;99543.44;5070769;28;20020;-63
2024/01/02 01:49:32;;;;;;;1.73;1.02;;;;;;;7.94;86.24;99520.22;5083597;28;20038;-64
2024/01/02 01:51:58;;;;;;;1.42;0.98;;;;;;;7.96;86.34;99511.66;5093090;28;20467;-64
2024/01/02 01:54:25;;;;;;;2.28;1.15;;;;;;;7.96;86.33;99503.34;5093482;28;20036;-63
2024/01/02 01:56:52;;;;;;;1.27;0.98;;;;;;;7.98;86.62;99490.94;5092767;28;20616;-63
2024/01/02 01:59:20;;;;;;;1.10;0.90;;;;;;;7.99;86.79;99495.34;5084146;28;20032;-63
2024/01/02 02:01:46;;;;;;;2.22;1.00;;;;;;;8.00;86.00;99485.97;5091902;28;20032;-63
2024/01/02 02:04:13;;;;;;;1.70;1.05;;;;;;;7.99;86.85;99478.78;5092639;28;20375;-63
2024/01/02 02:06:38;;;;;;;1.00;0.85;;;;;;;7.99;86.16;99464.97;5071222;28;20036;-63
2024/01/02 02:09:09;;;;;;;2.25;1.13;;;;;;;7.99;86.59;99464.97;5066788;28;20131;-63
2024/01/02 02:11:35;;;;;;;2.20;1.00;;;;;;;7.99;87.02;99455.84;5092036;28;20044;-63
2024/01/02 02:14:04;;;;;;;3.22;0.93;;;;;;;8.01;86.90;99454.47;5084491;28;20028;-63
2024/01/02 02:16:30;;;;;;;1.60;1.00;;;;;;;8.00;86.44;99447.28;5074715;28;20055;-63
2024/01/02 02:19:01;;;;;;;1.08;0.80;;;;;;;8.07;86.77;99428.53;5091981;28;20475;-63
2024/01/02 02:21:26;;;;;;;1.00;0.82;;;;;;;8.09;86.67;99412.47;5092413;28;20565;-63
2024/01/02 02:23:51;;;;;;;1.17;0.80;;;;;;;8.06;86.35;99409.47;5089506;28;20091;-63
2024/01/02 02:26:16;;;;;;;1.98;0.90;;;;;;;8.06;87.11;99395.66;5071027;28;20021;-64
2024/01/02 02:28:42;;;;;;;3.03;0.90;;;;;;;8.04;87.52;99387.59;5081036;28;20032;-63
2024/01/02 02:31:07;;;;;;;0.82;0.82;;;;;;;8.07;87.41;99386.25;5091929;28;20035;-63
2024/01/02 02:33:32;;;;;;;0.75;0.75;;;;;;;8.05;87.28;99386.50;5092507;28;20028;-63
2024/01/02 02:35:58;;;;;;;1.73;0.80;;;;;;;8.01;88.04;99366.03;5092938;28;20028;-63
2024/01/02 02:38:23;;;;;;;0.80;0.80;;;;;;;8.05;87.63;99358.03;5067394;28;20033;-64
2024/01/02 02:40:48;;;;;;;0.90;0.90;;;;;;;8.02;87.68;99345.63;5051601;28;20492;-63
2024/01/02 02:43:14;;;;;;;1.35;0.80;;;;;;;7.97;88.27;99340.06;5081019;28;20032;-63
2024/01/02 02:45:39;;;;;;;1.33;0.70;;;;;;;7.99;88.53;99334.28;5064883;28;20037;-63
2024/01/02 02:48:05;;;;;;;0.90;0.80;;;;;;;7.97;88.08;99325.41;5083200;28;20119;-63
2024/01/02 02:50:30;;;;;;;0.75;0.70;;;;;;;7.98;88.90;99316.88;5092245;28;20039;-63
2024/01/02 02:52:55;;;;;;;0.82;0.70;;;;;;;8.00;89.04;99314.66;5091192;28;20081;-63
2024/01/02 02:55:23;;;;;;;0.88;0.80;;;;;;;8.01;88.79;99308.00;5092165;28;20475;-64
2024/01/02 02:57:48;;;;;;;0.90;0.90;;;;;;;8.04;89.07;99303.88;5092498;28;20031;-64
2024/01/02 03:00:14;;;;;;;0.77;0.73;;;;;;;8.02;88.64;99279.31;5086072;28;20028;-64
2024/01/02 03:02:45;;;;;;;1.65;0.80;;;;;;;8.02;89.48;99259.13;5068753;28;20046;-63
2024/01/02 03:05:14;;;;;;;1.38;0.95;;;;;;;8.04;89.56;99266.03;5067666;28;20029;-63
2024/01/02 03:07:41;;;;;;;1.42;0.80;;;;;;;8.05;89.59;99250.28;5051280;28;20477;-63
2024/01/02 03:10:11;;;;;;;1.00;0.80;;;;;;;8.01;88.76;99222.34;5081422;28;20376;-63
2024/01/02 03:12:36;;;;;;;0.70;0.70;;;;;;;8.06;89.75;99221.56;5092114;28;20463;-63
2024/01/02 03:15:02;;;;;;;1.30;0.90;;;;;;;8.02;89.48;99212.16;5091079;28;20059;-64
2024/01/02 03:17:27;;;;;;;0.82;0.82;;;;;;;8.04;89.55;99204.41;5092161;28;20104;-64
2024/01/02 03:19:53;;;;;;;0.70;0.70;;;;;;;8.06;89.87;99197.50;5071423;28;20118;-63
2024/01/02 03:22:18;;;;;;;0.70;0.70;;;;;;;8.04;90.08;99194.19;5071064;28;20101;-63
2024/01/02 03:24:43;;;;;;;0.77;0.77;;;;;;;8.06;90.51;99186.47;5076990;28;20107;-63
2024/01/02 03:27:09;;;;;;;1.10;0.60;;;;;;;8.05;90.74;99182.03;5081976;28;20469;-63
2024/01/02 03:29:34;;;;;;;0.75;0.70;;;;;;;8.07;90.33;99170.72;5091165;28;20043;-63
2024/01/02 03:31:59;;;;;;;1.63;0.80;;;;;;;8.08;90.87;99167.66;5091740;28;20142;-63
2024/01/02 03:34:24;;;;;;;0.60;0.60;;;;;;;8.09;90.82;99160.19;5073015;28;20036;-63
2024/01/02 03:36:50;;;;;;;1.55;0.68;;;;;;;8.09;91.03;99152.72;5078507;28;20039;-63
2024/01/02 03:39:18;;;;;;;1.10;0.70;;;;;;;8.10;91.20;99150.81;5091041;28;20554;-63
2024/01/02 03:41:43;;;;;;;0.70;0.70;;;;;;;8.07;91.51;99152.19;5077768;28;20028;-64
2024/01/02 03:44:08;;;;;;;1.77;0.70;;;;;;;8.09;91.89;99151.91;5054165;28;20028;-63
2024/01/02 03:46:34;;;;;;;0.60;0.60;;;;;;;8.11;92.13;99133.94;5091082;28;20527;-63
2024/01/02 03:48:59;;;;;;;0.60;0.60;;;;;;;8.12;91.88;99149.41;5084800;28;20031;-63
2024/01/02 03:51:24;;;;;;;0.70;0.60;;;;;;;8.17;91.90;99143.03;5089453;28;20036;-63
2024/01/02 03:53:50;;;;;;;2.47;0.75;;;;;;;8.17;92.48;99139.44;5091342;28;20024;-63
2024/01/02 03:56:16;;;;;;;0.70;0.70;;;;;;;8.18;93.04;99136.44;5090753;28;20032;-63
2024/01/02 03:58:41;;;;;;;0.63;0.63;;;;;;;8.19;92.84;99132.53;5091576;28;20028;-64
2024/01/02 04:01:07;;;;;;;0.80;0.80;;;;;;;8.20;92.78;99125.09;5070126;28;20029;-63
2024/01/02 04:03:32;;;;;;;0.70;0.70;;;;;;;8.21;93.63;99123.97;5065121;28;20432;-63
2024/01/02 04:05:57;;;;;;;0.70;0.70;;;;;;;8.22;93.41;99114.59;5070884;28;20035;-63
2024/01/02 04:08:22;;;;;;;0.73;0.63;;;;;;;8.24;93.63;99117.88;5071411;28;20024;-63
2024/01/02 04:10:48;;;;;;;0.70;0.70;;;;;;;8.26;94.06;99119.28;5070874;28;20042;-63
2024/01/02 04:13:14;;;;;;;0.70;0.70;;;;;;;8.26;94.64;99104.63;5071555;28;20024;-63
2024/01/02 04:15:39;;;;;;;0.70;0.70;;;;;;;8.26;94.61;99099.09;5070672;28;20108;-63
2024/01/02 04:18:05;;;;;;;0.80;0.80;;;;;;;8.28;95.46;99111.50;5054129;28;20100;-63
2024/01/02 04:20:30;;;;;;;0.80;0.77;;;;;;;8.30;95.27;99091.91;5051023;28;20525;-63
2024/01/02 04:22:58;;;;;;;0.70;0.70;;;;;;;8.33;95.07;99081.09;5067080;28;20028;-63
2024/01/02 04:25:24;;;;;;;0.70;0.70;;;;;;;8.36;95.32;99079.69;5073223;28;20028;-63
2024/01/02 04:27:53;;;;;;;1.55;0.70;;;;;;;8.40;95.56;99085.53;5070908;28;20021;-63
2024/01/02 04:30:18;;;;;;;0.70;0.70;;;;;;;8.42;95.62;99088.84;5073146;28;20063;-63
2024/01/02 04:32:43;;;;;;;0.75;0.70;;;;;;;8.42;95.59;99084.16;5080225;28;20056;-63
2024/01/02 04:35:09;;;;;;;0.73;0.73;;;;;;;8.45;95.97;99091.88;5061593;28;20027;-63
2024/01/02 04:37:34;;;;;;;0.77;0.77;;;;;;;8.47;96.25;99088.81;5082196;28;20082;-63
2024/01/02 04:39:59;;;;;;;0.70;0.70;;;;;;;8.48;96.73;99074.69;5089625;28;20040;-64
2024/01/02 04:42:25;;;;;;;0.60;0.60;;;;;;;8.51;96.58;99076.09;5091100;28;20028;-64
2024/01/02 04:44:56;;;;;;;0.73;0.70;;;;;;;8.53;96.85;99080.22;5090913;28;20064;-64
2024/01/02 04:47:21;;;;;;;0.95;0.70;;;;;;;8.55;96.71;99080.75;5082289;28;20071;-64
2024/01/02 04:49:46;;;;;;;0.73;0.70;;;;;;;8.57;97.09;99070.25;5070605;28;20048;-63
2024/01/02 04:52:11;;;;;;;0.60;0.60;;;;;;;8.60;97.08;99069.66;5070826;28;20032;-63
2024/01/02 04:54:37;;;;;;;0.63;0.60;;;;;;;8.64;97.39;99069.09;5064255;28;20028;-63
2024/01/02 04:57:02;;;;;;;0.95;0.60;;;;;;;8.67;97.12;99074.06;5066692;28;20016;-63
2024/01/02 04:59:27;;;;;;;0.60;0.60;;;;;;;8.70;97.96;99073.50;5089955;28;20028;-63
2024/01/02 05:01:52;;;;;;;0.75;0.60;;;;;;;8.72;97.91;99077.63;5083614;28;20039;-63
2024/01/02 05:04:18;;;;;;;0.60;0.60;;;;;;;8.76;98.17;99077.88;5071521;28;20052;-63
2024/01/02 05:06:43;;;;;;;0.70;0.70;;;;;;;8.78;98.41;99070.97;5065438;28;20105;-63
2024/01/02 05:09:08;;;;;;;0.60;0.60;;;;;;;8.82;98.07;99082.31;5076298;28;20483;-64
2024/01/02 05:11:37;;;;;;;0.60;0.60;;;;;;;8.84;98.61;99085.59;5079280;28;20059;-64
2024/01/02 05:14:03;;;;;;;0.70;0.70;;;;;;;8.87;99.05;99081.44;5056565;28;20029;-63
2024/01/02 05:16:28;;;;;;;0.68;0.68;;;;;;;8.89;98.70;99076.47;5051140;28;20074;-63
2024/01/02 05:18:54;;;;;;;0.60;0.60;;;;;;;8.93;99.29;99083.06;5054234;28;20033;-63
2024/01/02 05:21:19;;;;;;;0.70;0.70;;;;;;;8.96;99.38;99090.78;5052769;28;20028;-63
2024/01/02 05:23:44;;;;;;;0.60;0.60;;;;;;;8.99;99.98;99099.34;5077244;28;20035;-63
2024/01/02 05:26:09;;;;;;;0.70;0.70;;;;;;;9.02;100.00;99095.19;5094384;28;20062;-64
2024/01/02 05:28:35;;;;;;;0.70;0.70;;;;;;;9.04;100.00;99085.50;5078950;28;20028;-63
2024/01/02 05:31:00;;;;;;;1.70;0.70;;;;;;;9.06;100.00;99083.25;5073539;28;20523;-63
2024/01/02 05:33:25;;;;;;;0.80;0.80;;;;;;;9.10;100.00;99078.81;5062294;28;20021;-63
2024/01/02 05:35:50;;;;;;;0.80;0.80;;;;;;;9.13;100.00;99079.34;5082167;28;20045;-63
2024/01/02 05:38:16;;;;;;;0.77;0.77;;;;;;;9.15;100.00;99077.13;5072082;28;20059;-63
2024/01/02 05:40:41;;;;;;;0.82;0.80;;;;;;;9.18;100.00;99084.84;5085283;28;20052;-63
2024/01/02 05:43:06;;;;;;;0.80;0.80;;;;;;;9.20;100.00;99079.88;5092877;28;20391;-63
2024/01/02 05:45:32;;;;;;;0.65;0.65;;;;;;;9.23;100.00;99087.56;5093758;28;20039;-63
2024/01/02 05:47:57;;;;;;;0.70;0.70;;;;;;;9.24;100.00;99092.84;5094052;28;20031;-64
2024/01/02 05:50:22;;;;;;;0.70;0.70;;;;;;;9.27;100.00;99089.47;5062257;28;20076;-63
2024/01/02 05:52:47;;;;;;;0.70;0.70;;;;;;;9.29;100.00;99095.56;5068665;28;20033;-63
2024/01/02 05:55:13;;;;;;;0.70;0.70;;;;;;;9.32;100.00;99110.78;5093432;28;20040;-63
2024/01/02 05:57:38;;;;;;;0.60;0.60;;;;;;;9.34;100.00;99100.22;5092725;28;20022;-63
2024/01/02 06:00:05;;;;;;;0.60;0.60;;;;;;;9.37;100.00;99110.75;5093109;28;20024;-64
2024/01/02 06:02:30;;;;;;;0.70;0.70;;;;;;;9.38;100.00;99112.38;5074577;28;20039;-63
2024/01/02 06:04:55;;;;;;;0.68;0.68;;;;;;;9.41;100.00;99111.81;5056777;28;20033;-63
2024/01/02 06:07:20;;;;;;;1.15;0.70;;;;;;;9.44;100.00;99115.97;5053304;28;20021;-63
2024/01/02 06:09:46;;;;;;;0.80;0.80;;;;;;;9.44;100.00;99119.56;5081878;28;20050;-63
2024/01/02 06:12:14;;;;;;;0.68;0.68;;;;;;;9.46;100.00;99128.38;5092665;28;20036;-63
2024/01/02 06:14:39;;;;;;;0.70;0.70;;;;;;;9.49;100.00;99136.13;5093300;28;20052;-63
2024/01/02 06:17:04;;;;;;;0.70;0.70;;;;;;;9.51;100.00;99131.13;5076054;28;20435;-63
2024/01/02 06:19:30;;;;;;;0.60;0.60;;;;;;;9.51;100.00;99136.69;5061483;28;20033;-63
2024/01/02 06:21:55;;;;;;;1.25;0.60;;;;;;;9.54;100.00;99136.06;5060183;28;20033;-63
2024/01/02 06:24:20;;;;;;;0.65;0.65;;;;;;;9.54;100.00;99136.06;5088267;28;20040;-63
2024/01/02 06:26:46;;;;;;;1.35;0.80;;;;;;;9.55;100.00;99142.47;5092893;28;20106;-63
2024/01/02 06:29:11;;;;;;;0.80;0.80;;;;;;;9.58;100.00;99155.72;5092337;28;20028;-63
2024/01/02 06:31:36;;;;;;;1.17;1.08;;;;;;;9.59;100.00;99152.69;5092064;28;20062;-63
2024/01/02 06:34:02;;;;;;;1.67;1.25;;;;;;;9.61;100.00;99162.63;5070587;28;20114;-63
2024/01/02 06:36:27;;;;;;;1.40;1.30;;;;;;;9.62;100.00;99158.75;5087929;28;20077;-63
2024/01/02 06:38:52;;;;;;;3.00;2.70;;;;;;;9.65;100.00;99159.00;5077715;28;20047;-63
2024/01/02 06:41:17;;;;;;;2.72;2.50;;;;;;;9.66;100.00;99159.81;5052746;28;20090;-63
2024/01/02 06:43:43;;;;;;;3.40;2.40;;;;;;;9.67;100.00;99153.16;5052581;28;20469;-64
2024/01/02 06:46:11;;;;;;;3.58;3.28;;;;;;;9.69;100.00;99159.25;5053484;28;20028;-63
2024/01/02 06:48:41;;;;;;;7.35;4.47;;;;;;;9.74;100.00;99151.72;5092569;28;20055;-63
2024/01/02 06:51:06;;;;;;;5.10;4.32;;;;;;;9.75;100.00;99155.34;5092147;28;20463;-63
2024/01/02 06:53:31;;;;;;;4.72;4.32;;;;;;;9.77;100.00;99161.41;5078100;28;20043;-63
2024/01/02 06:55:56;;;;;;;5.82;4.47;;;;;;;9.77;100.00;99170.53;5085214;28;20085;-63
2024/01/02 06:58:25;;;;;;;4.75;4.32;;;;;;;9.78;100.00;99166.66;5073192;28;20487;-63
2024/01/02 07:00:50;;;;;;;5.20;4.68;;;;;;;9.79;100.00;99168.31;5077839;28;20086;-62
2024/01/02 07:03:17;;;;;;;5.75;5.25;;;;;;;9.80;100.00;99174.69;5092040;28;20036;-62
2024/01/02 07:05:42;;;;;;;5.78;5.18;;;;;;;9.82;100.00;99172.44;5092326;28;20028;-62
2024/01/02 07:08:07;;;;;;;6.45;5.40;;;;;;;9.82;100.00;99194.59;5078978;28;20038;-62
2024/01/02 07:10:32;;;;;;;6.32;5.68;;;;;;;9.85;100.00;99194.03;5084040;28;20429;-62
2024/01/02 07:12:58;;;;;;;6.90;5.60;;;;;;;9.88;100.00;99198.19;5091698;28;20040;-62
2024/01/02 07:15:24;;;;;;;7.88;6.35;;;;;;;9.87;100.00;99197.34;5083462;28;20031;-62
2024/01/02 07:17:49;;;;;;;6.90;6.00;;;;;;;9.88;100.00;99196.22;5070676;28;20031;-62
2024/01/02 07:20:14;;;;;;;8.60;6.15;;;;;;;9.90;100.00;99193.97;5091547;28;20603;-63
2024/01/02 07:22:39;;;;;;;8.57;6.93;;;;;;;9.92;100.00;99197.31;5076729;28;20040;-63
2024/01/02 07:25:05;;;;;;;10.35;6.82;;;;;;;9.92;100.00;99197.31;5063921;28;20066;-63
2024/01/02 07:27:30;;;;;;;8.85;6.70;;;;;;;9.93;100.00;99200.91;5058225;28;20488;-63
2024/01/02 07:29:56;;;;;;;9.30;7.18;;;;;;;9.96;100.00;99205.88;5058683;28;20029;-63
2024/01/02 07:32:21;;;;;;;10.50;6.82;;;;;;;9.97;100.00;99224.16;5063658;28;20102;-63
2024/01/02 07:34:46;;;;;;;9.57;6.35;;;;;;;9.98;100.00;99220.25;5060758;28;20157;-63
2024/01/02 07:37:12;;;;;;;12.05;6.47;;;;;;;9.98;100.00;99212.78;5072470;28;20044;-63
2024/01/02 07:39:38;;;;;;;7.80;6.35;;;;;;;9.99;100.00;99220.00;5055459;28;20385;-62
2024/01/02 07:42:05;;;;;;;9.10;6.30;;;;;;;9.99;100.00;99222.75;5050528;28;20429;-63
2024/01/02 07:44:31;;;;;;;11.48;6.68;;;;;;;10.00;100.00;99224.41;5055043;28;20033;-63
2024/01/02 07:46:57;;;;;;;9.63;6.25;;;;;;;10.01;100.00;99231.59;5052226;28;20032;-63
2024/01/02 07:49:22;;;;;;;10.13;6.28;;;;;;;10.03;100.00;99234.91;5055950;28;20040;-63
2024/01/02 07:51:47;;;;;;;10.50;5.75;;;;;;;10.04;100.00;99233.78;5052272;28;20036;-62
2024/01/02 07:54:13;;;;;;;11.40;6.15;;;;;;;10.05;100.00;99238.22;5064300;28;20032;-62
2024/01/02 07:56:38;;;;;;;13.65;5.72;;;;;;;10.07;100.00;99235.19;5061239;28;20474;-62
2024/01/02 07:59:03;;;;;;;11.63;5.75;;;;;;;10.07;100.00;99235.19;5053665;28;20066;-63
2024/01/02 08:01:29;;;;;;;9.88;5.13;;;;;;;10.07;100.00;99247.09;5068981;28;20040;-62
2024/01/02 08:03:54;;;;;;;9.57;5.07;;;;;;;10.08;100.00;99239.59;5069864;28;20037;-63
2024/01/02 08:06:19;;;;;;;13.15;5.60;;;;;;;10.08;100.00;99243.19;5056046;28;20472;-62
2024/01/02 08:08:47;;;;;;;7.35;4.47;;;;;;;10.10;100.00;99248.47;5060961;28;20028;-61
2024/01/02 08:11:13;;;;;;;9.80;4.65;;;;;;;10.09;100.00;99241.25;5061327;28;20085;-62
2024/01/02 08:13:38;;;;;;;8.75;4.50;;;;;;;10.11;100.00;99249.28;5069529;28;20028;-62
2024/01/02 08:16:04;;;;;;;12.40;5.15;;;;;;;10.12;100.00;99242.63;5060457;28;20033;-62
2024/01/02 08:18:30;;;;;;;11.25;5.45;;;;;;;10.13;100.00;99241.50;5048917;28;20037;-63
2024/01/02 08:20:55;;;;;;;10.43;4.93;;;;;;;10.12;100.00;99246.22;5062725;28;20155;-62
2024/01/02 08:23:21;;;;;;;7.60;4.47;;;;;;;10.14;100.00;99251.47;5070202;28;20036;-63
2024/01/02 08:25:46;;;;;;;7.95;4.60;;;;;;;10.16;100.00;99250.06;5061023;28;20044;-61
2024/01/02 08:28:15;;;;;;;11.38;5.32;;;;;;;10.18;100.00;99252.53;5056128;28;20025;-64
2024/01/02 08:30:40;;;;;;;12.85;5.22;;;;;;;10.18;100.00;99269.16;5060304;28;20396;-63
2024/01/02 08:33:08;;;;;;;12.13;5.45;;;;;;;10.19;100.00;99270.84;5060045;28;20040;-62
2024/01/02 08:35:34;;;;;;;9.18;5.55;;;;;;;10.20;100.00;99258.63;5060648;28;20029;-63
2024/01/02 08:37:59;;;;;;;10.43;5.20;;;;;;;10.22;100.00;99256.41;5063224;28;20490;-63
2024/01/02 08:40:25;;;;;;;6.40;4.80;;;;;;;10.24;100.00;99256.94;5054674;28;20052;-62
2024/01/02 08:42:51;;;;;;;7.18;4.78;;;;;;;10.23;100.00;99252.50;5049241;28;20033;-63
2024/01/02 08:45:16;;;;;;;6.82;4.22;;;;;;;10.24;100.00;99248.63;5056715;28;20032;-66
2024/01/02 08:47:44;;;;;;;8.80;5.13;;;;;;;10.24;100.00;99251.38;5057621;28;20028;-64
2024/01/02 08:50:09;;;;;;;9.07;4.80;;;;;;;10.28;100.00;99246.94;5052419;28;20025;-68
2024/01/02 08:52:35;;;;;;;7.35;4.53;;;;;;;10.28;100.00;99246.94;5062528;28;20032;-65
2024/01/02 08:55:04;;;;;;;8.30;4.13;;;;;;;10.30;100.00;99241.94;5060156;28;20037;-64
2024/01/02 08:57:30;;;;;;;8.40;4.30;;;;;;;10.29;100.00;99237.50;5058080;28;20044;-65
2024/01/02 08:59:55;;;;;;;6.25;4.38;;;;;;;10.30;100.00;99231.69;5054218;28;20040;-65
2024/01/02 09:02:21;;;;;;;4.85;3.83;;;;;;;10.32;100.00;99226.66;5066119;28;20112;-63
2024/01/02 09:04:47;;;;;;;7.22;4.65;;;;;;;10.35;100.00;99236.34;5058336;28;20032;-65
2024/01/02 09:07:12;;;;;;;4.82;4.03;;;;;;;10.37;100.00;99239.66;5057990;28;20029;-67
2024/01/02 09:09:37;;;;;;;4.25;3.67;;;;;;;10.37;100.00;99239.66;5063438;28;20042;-60
2024/01/02 09:12:05;;;;;;;4.18;3.75;;;;;;;10.37;100.00;99223.00;5057920;28;20589;-61
2024/01/02 09:14:30;;;;;;;3.95;3.42;;;;;;;10.39;100.00;99225.50;5060681;28;20078;-62
2024/01/02 09:16:56;;;;;;;4.28;3.85;;;;;;;10.39;100.00;99217.19;5060184;28;20037;-62
2024/01/02 09:19:21;;;;;;;4.93;3.20;;;;;;;10.39;100.00;99206.91;5064305;28;20484;-62
2024/01/02 09:21:46;;;;;;;3.50;3.20;;;;;;;10.42;100.00;99209.09;5059479;28;20033;-62
2024/01/02 09:24:14;;;;;;;5.22;3.35;;;;;;;10.43;100.00;99207.16;5053667;28;20081;-59
2024/01/02 09:26:40;;;;;;;3.75;3.33;;;;;;;10.44;100.00;99192.97;5060277;28;20052;-61
2024/01/02 09:29:08;;;;;;;3.08;2.75;;;;;;;10.44;100.00;99200.47;5059964;28;20031;-65
2024/01/02 09:31:34;;;;;;;3.65;3.35;;;;;;;10.44;100.00;99195.75;5073331;28;20040;-64
2024/01/02 09:33:59;;;;;;;4.30;3.85;;;;;;;10.45;100.00;99202.97;5072541;28;20070;-63
2024/01/02 09:36:24;;;;;;;4.25;3.88;;;;;;;10.45;100.00;99196.59;5068631;28;20028;-64
2024/01/02 09:38:50;;;;;;;3.95;3.65;;;;;;;10.45;100.00;99191.03;5061925;28;20040;-63
2024/01/02 09:41:33;;;;;;;4.55;4.15;;;;;;;10.46;100.00;99198.25;5072043;28;20024;-63
2024/01/02 09:44:07;;;;;;;5.72;5.22;;;;;;;10.45;100.00;99202.97;5068128;28;20047;-64
2024/01/02 09:46:47;;;;;;;11.95;11.05;;;;;;;10.47;100.00;99197.13;5062471;28;20036;-63
2024/01/02 09:49:33;;;;;;;6.32;5.93;;;;;;;10.47;100.00;99203.50;5071740;28;20480;-64
2024/01/02 09:52:17;;;;;;;3.40;3.20;;;;;;;10.47;100.00;99203.50;5072840;28;20070;-64
2024/01/02 09:54:57;;;;;;;2.63;2.42;;;;;;;10.48;100.00;99204.31;5050569;28;20047;-64
2024/01/02 09:57:32;;;;;;;2.42;2.22;;;;;;;10.48;100.00;99196.81;5058940;28;20031;-61
2024/01/02 10:00:03;;;;;;;3.20;2.15;;;;;;;10.50;100.00;99199.31;5068560;28;20044;-64
2024/01/02 10:03:01;;;;;;;2.42;2.22;;;;;;;10.52;100.00;99199.84;5051197;28;20913;-63
2024/01/02 10:05:58;;;;;;;3.00;1.88;;;;;;;10.51;100.00;99201.78;5062951;28;20035;-62
2024/01/02 10:08:56;;;;;;;3.28;2.20;;;;;;;10.53;100.00;99199.56;5058896;28;20060;-65
2024/01/02 10:11:39;;;;;;;2.45;2.25;;;;;;;10.53;100.00;99196.78;5064378;28;20037;-63
2024/01/02 10:14:25;;;;;;;2.10;2.00;;;;;;;10.55;100.00;99205.63;5060775;28;20032;-66
2024/01/02 10:17:32;;;;;;;1.83;1.73;;;;;;;10.54;100.00;99192.88;5061940;28;20043;-66
2024/01/02 10:20:28;;;;;;;1.73;1.63;;;;;;;10.58;100.00;99193.13;5013592;28;20157;-65
2024/01/02 10:23:10;;;;;;;1.50;1.40;;;;;;;10.59;100.00;99185.63;5063445;28;20032;-63
2024/01/02 10:25:36;;;;;;;1.65;1.55;;;;;;;10.59;100.00;99175.34;5063217;28;20029;-63
2024/01/02 10:28:13;;;;;;;1.50;1.40;;;;;;;10.60;100.00;99182.56;5060724;28;21269;-66
2024/01/02 10:30:59;;;;;;;1.48;1.38;;;;;;;10.62;100.00;99171.19;5064113;28;20032;-64
2024/01/02 10:33:39;;;;;;;1.70;1.60;;;;;;;10.62;100.00;99160.09;5059480;28;20037;-62
2024/01/02 10:36:08;;;;;;;1.90;1.80;;;;;;;10.61;100.00;99167.59;5065954;28;20472;-63
2024/01/02 10:38:43;;;;;;;1.75;1.65;;;;;;;10.63;100.00;99175.59;5066187;28;20029;-62
2024/01/02 10:41:46;;;;;;;1.77;1.67;;;;;;;10.65;100.00;99165.88;5066058;28;20029;-63
2024/01/02 10:44:29;;;;;;;1.38;1.20;;;;;;;10.66;100.00;99158.38;5056007;28;20488;-65
2024/01/02 10:47:00;;;;;;;2.70;1.38;;;;;;;10.65;100.00;99156.69;5067164;28;20525;-65
2024/01/02 10:49:41;;;;;;;1.40;1.30;;;;;;;10.66;100.00;99158.38;5052117;28;20025;-67
2024/01/02 10:52:15;;;;;;;1.25;1.15;;;;;;;10.67;100.00;99160.00;5064455;28;20040;-67
2024/01/02 10:55:00;;;;;;;1.20;1.00;;;;;;;10.67;100.00;99146.13;5061036;28;20085;-66
2024/01/02 10:57:43;;;;;;;1.60;1.00;;;;;;;10.67;100.00;99149.75;5063292;28;20024;-67
2024/01/02 11:00:20;;;;;;;2.07;1.60;;;;;;;10.66;100.00;99139.78;5054690;28;20419;-67
2024/01/02 11:02:57;;;;;;;4.90;4.50;;;;;;;10.66;100.00;99148.09;5057233;28;20343;-66
2024/01/02 11:05:31;;;;;;;5.20;4.80;;;;;;;10.66;100.00;99150.88;5060072;28;20032;-65
2024/01/02 11:08:03;;;;;;;4.95;4.55;;;;;;;10.67;100.00;99132.28;5063265;28;20037;-65
2024/01/02 11:10:32;;;;;;;1.40;1.30;;;;;;;10.67;100.00;99137.81;5055592;28;20037;-65
2024/01/02 11:13:03;;;;;;;2.28;1.30;;;;;;;10.66;100.00;99123.13;5059551;28;20028;-64
2024/01/02 11:15:33;;;;;;;1.08;0.90;;;;;;;10.66;100.00;99117.56;5052015;28;20430;-65
2024/01/02 11:17:59;;;;;;;0.95;0.90;;;;;;;10.68;100.00;99111.72;5055863;28;20028;-62
2024/01/02 11:20:38;;;;;;;0.90;0.90;;;;;;;10.68;100.00;99114.50;5060986;28;20558;-65
2024/01/02 11:23:14;;;;;;;1.00;0.82;;;;;;;10.66;100.00;99113.97;5060259;28;20059;-65
2024/01/02 11:25:47;;;;;;;0.90;0.90;;;;;;;10.65;100.00;99095.66;5055393;28;20024;-66
2024/01/02 11:28:16;;;;;;;0.98;0.90;;;;;;;10.67;100.00;99093.44;5051643;28;20024;-63
2024/01/02 11:30:43;;;;;;;2.00;1.10;;;;;;;10.66;100.00;99089.00;5057124;28;20064;-64
2024/01/02 11:33:25;;;;;;;0.70;0.70;;;;;;;10.66;100.00;99083.44;5055796;28;20059;-64
2024/01/02 11:36:30;;;;;;;0.95;0.95;;;;;;;10.66;100.00;99080.69;5056254;28;20033;-63